Aérodrome :
LOGIN :

S'inscrire | Disclaimer

   EN    FR    IT 

 










Légende :    VFR   VFR Marginal   IFR   IFR Intensif   IFR Très Intensif
Visi : 
Plafond : 
>= 8 km
>= 3000ft
5 à 8 km
1000 à 3000 ft
1500m à 5 km
500 à 1000 ft
800 à 1500m
200 à 500 ft
< 800m
< 200 ft
Symboles :   Orages  Brouillard  Fortes neiges  Fortes précipitations  Vent > 20 kt
SIGMETs :   Divers  Orages  Givrage  Turbulence  Onde Orograph.  Cendres Volcan.







- Altitude de l'aérodrome : 184 ft
- Code IATA : BRU


EBBR - Bruxelles

DERNIER METAR :
  • 260720Z 24008KT CAVOK 10/08 Q1012 NOSIG

METARs EXPIRÉS :
  • 260650Z 21008KT CAVOK 10/07 Q1013 NOSIG
  • 260620Z 21008KT 9999 FEW047 09/07 Q1012 NOSIG
  • 260550Z 23009KT 9999 FEW046 09/07 Q1011 NOSIG
  • 260520Z 21006KT CAVOK 08/07 Q1011 NOSIG
  • 260450Z 20006KT CAVOK 07/06 Q1011 NOSIG

TAF TAF EBBR
Valide du 26 à 06h jusqu'au 27 à 12h UTC


260520Z 2606/2712 22007KT 9999 FEW042
PROB30
TEMPO 2617/2621 28015G25KT 4500 SHRA
TEMPO 2702/2707 4000 RA SHRA BKN014TCU
BECMG 2707/2709 23017G28KT
PROB30
TEMPO 2709/2712 4500 SHRA
Pas de NOTAMs connus pour ce terrain.



MET'MAP, la Météo Aéronautique d'un coup d'oeil ! - Copyright ORBIFLY Décembre 2007 - Disclaimer

ORBIFLY MET'MAP TEAM :

Programmation & Développement : Alexandra Zaïnal
Conception & Développement : Baudouin d'Aumeries
Co-Programmation & Développement : Marc-Olivier Méhu
Soutien technique & logistique : Manuel Goepfert

Contact : metmap@orbifly.com




SOURCES & CREDITS :

   NOAA